Time;durP1;ratioP1;P1;durP2;ratioP2;P2;SDS_P1;SDS_P2;PMS_P1;PMS_P2;Temp;Humidity;BMP_temperature;BMP_pressure;BME280_temperature;BME280_humidity;BME280_pressure;Samples;Min_cycle;Max_cycle;Signal;HPM_P1;HPM_P2
2023/09/24 00:03:02;;;;;;;;;;;;;;;;;;;;;
2023/09/24 00:06:11;;;;;;;4.80;2.20;;;;;;;9.48;80.72;100697.61;133617;1301;22395;-79
2023/09/24 00:09:15;;;;;;;8.80;2.90;;;;;;;9.48;80.70;100702.38;133569;1301;24036;-79
2023/09/24 00:13:00;;;;;;;3.10;2.10;;;;;;;9.46;80.76;100704.55;133426;1302;22288;-79
2023/09/24 00:16:35;;;;;;;4.40;2.50;;;;;;;9.39;80.55;100704.66;133366;1304;22411;-77
2023/09/24 00:19:59;;;;;;;5.80;2.40;;;;;;;9.32;80.60;100695.61;133631;1301;22250;-77
2023/09/24 00:23:15;;;;;;;4.20;2.40;;;;;;;9.25;80.43;100695.42;133683;1301;22506;-77
2023/09/24 00:26:18;;;;;;;4.40;2.30;;;;;;;9.19;80.62;100693.23;133633;1301;22874;-78
2023/09/24 00:29:33;;;;;;;4.10;2.40;;;;;;;9.12;80.60;100690.57;133641;1301;22503;-77
2023/09/24 00:33:11;;;;;;;;;;;;;;;;;;;;;
2023/09/24 00:36:25;;;;;;;3.10;2.30;;;;;;;9.07;80.86;100687.15;133650;1304;22388;-80
2023/09/24 00:39:26;;;;;;;;;;;;;;;9.02;80.75;100685.33;133679;1301;23218;-81
2023/09/24 00:42:27;;;;;;;2.50;2.20;;;;;;;8.97;80.75;100685.62;133626;1301;22263;-78
2023/09/24 00:45:28;;;;;;;6.40;3.00;;;;;;;8.95;80.97;100685.05;133635;1301;22363;-79
2023/09/24 00:48:41;;;;;;;3.20;2.00;;;;;;;8.95;80.93;100681.54;133668;1301;23294;-78
2023/09/24 00:51:43;;;;;;;2.30;2.00;;;;;;;8.94;81.13;100681.31;133650;1301;23033;-80
2023/09/24 00:55:10;;;;;;;5.40;2.20;;;;;;;8.90;81.20;100683.98;133632;1301;22417;-77
2023/09/24 00:58:24;;;;;;;;;;;;;;;;;;;;;
2023/09/24 01:01:39;;;;;;;5.70;2.30;;;;;;;8.92;81.97;100698.98;133635;1300;22400;-77
2023/09/24 01:05:03;;;;;;;4.20;2.60;;;;;;;8.90;82.25;100705.86;133631;1298;22475;-80
2023/09/24 01:08:07;;;;;;;7.50;3.10;;;;;;;8.86;82.39;100710.96;133650;1308;23165;-78
2023/09/24 01:11:16;;;;;;;8.30;2.50;;;;;;;8.84;82.20;100711.15;133659;1301;22249;-78
2023/09/24 01:14:51;;;;;;;;;;;;;;;;;;;;;
2023/09/24 01:17:54;;;;;;;4.00;2.20;;;;;;;8.73;81.92;100720.47;133622;1301;22343;-79
2023/09/24 01:20:58;;;;;;;10.40;2.10;;;;;;;8.68;81.67;100728.00;133449;1304;22428;-77
2023/09/24 01:24:27;;;;;;;4.40;2.10;;;;;;;8.62;81.57;100738.02;133674;1301;22397;-78
2023/09/24 01:27:28;;;;;;;6.10;1.90;;;;;;;8.57;81.53;100739.73;133564;1301;23427;-77
2023/09/24 01:30:29;;;;;;;3.70;2.30;;;;;;;8.52;81.70;100747.17;133449;1300;22359;-80
2023/09/24 01:33:36;;;;;;;4.50;2.60;;;;;;;8.51;81.90;100752.41;133640;1302;23242;-78
2023/09/24 01:36:40;;;;;;;6.60;2.50;;;;;;;8.53;81.89;100754.88;133631;1304;22496;-78
2023/09/24 01:39:41;;;;;;;5.10;2.60;;;;;;;8.52;81.80;100756.19;133611;1301;22593;-82
2023/09/24 01:42:51;;;;;;;7.20;2.90;;;;;;;8.50;81.88;100759.05;133444;1304;23151;-77
2023/09/24 01:45:53;;;;;;;3.10;2.40;;;;;;;8.50;82.08;100765.55;133620;1302;22788;-77
2023/09/24 01:49:19;;;;;;;3.90;2.60;;;;;;;8.50;82.13;100761.70;133624;1301;22277;-80
2023/09/24 01:52:20;;;;;;;5.80;2.80;;;;;;;8.47;81.88;100759.46;133478;1307;22368;-78
2023/09/24 01:55:22;;;;;;;6.20;2.70;;;;;;;8.42;81.83;100757.13;133623;1301;22683;-77
2023/09/24 01:58:49;;;;;;;4.90;3.00;;;;;;;8.37;81.94;100764.44;133471;1304;22413;-77
2023/09/24 02:02:21;;;;;;;4.90;2.60;;;;;;;8.36;81.84;100771.61;133385;1301;23627;-80
2023/09/24 02:05:45;;;;;;;3.10;2.60;;;;;;;8.35;81.97;100783.80;133650;1301;22435;-76
2023/09/24 02:08:51;;;;;;;4.30;3.20;;;;;;;8.34;81.97;100789.38;133634;1301;22233;-81
2023/09/24 02:12:08;;;;;;;;;;;;;;;;;;;;;
2023/09/24 02:15:16;;;;;;;7.20;2.80;;;;;;;8.28;82.01;100796.96;133418;1301;22172;-78
2023/09/24 02:18:20;;;;;;;;;;;;;;;8.28;82.09;100796.60;133454;1302;23517;-79
2023/09/24 02:21:29;;;;;;;6.70;2.50;;;;;;;8.26;82.12;100791.30;133427;1301;22227;-77
2023/09/24 02:24:33;;;;;;;7.00;3.20;;;;;;;8.24;82.20;100798.75;133607;1301;22274;-78
2023/09/24 02:27:49;;;;;;;;;;;;;;;;;;;;;
2023/09/24 02:30:55;;;;;;;4.50;3.30;;;;;;;8.21;82.27;100807.79;133623;1301;22222;-78
2023/09/24 02:33:59;;;;;;;3.20;2.90;;;;;;;8.21;82.47;100813.66;133650;1301;23289;-78
2023/09/24 02:37:08;;;;;;;4.40;3.10;;;;;;;8.23;82.53;100822.05;133639;1302;22535;-78
2023/09/24 02:40:13;;;;;;;3.00;2.50;;;;;;;8.23;82.72;100829.61;133453;1301;22478;-77
2023/09/24 02:43:22;;;;;;;4.20;2.60;;;;;;;8.22;82.59;100828.14;133632;1301;22386;-77
2023/09/24 02:46:25;;;;;;;4.90;3.30;;;;;;;8.20;82.81;100829.52;133614;1300;22526;-77
2023/09/24 02:49:32;;;;;;;7.20;3.10;;;;;;;8.24;82.87;100832.93;133655;1308;22980;-78
2023/09/24 02:53:14;;;;;;;3.80;3.30;;;;;;;8.25;83.03;100834.56;133427;1301;22985;-79
2023/09/24 02:56:37;;;;;;;5.00;3.40;;;;;;;8.26;83.09;100833.20;133342;1301;23179;-78
2023/09/24 02:59:37;;;;;;;6.80;3.20;;;;;;;8.28;83.15;100837.29;133403;1308;22440;-78
2023/09/24 03:02:39;;;;;;;;;;;;;;;8.29;83.37;100845.63;133594;1301;23216;-75
2023/09/24 03:05:48;;;;;;;7.70;3.20;;;;;;;8.32;83.41;100845.61;133594;1301;22148;-79
2023/09/24 03:09:12;;;;;;;5.30;3.90;;;;;;;8.35;83.27;100847.86;133677;1301;22503;-77
2023/09/24 03:12:42;;;;;;;4.40;3.40;;;;;;;8.37;83.65;100852.70;133309;1308;22340;-78
2023/09/24 03:16:13;;;;;;;;;;;;;;;;;;;;;
2023/09/24 03:19:25;;;;;;;4.80;4.30;;;;;;;8.40;83.69;100865.02;133655;1304;22463;-78
2023/09/24 03:22:29;;;;;;;4.30;3.50;;;;;;;8.42;83.74;100868.20;133673;1301;22654;-77
2023/09/24 03:26:00;;;;;;;5.70;4.00;;;;;;;8.44;83.72;100868.50;133675;1301;22919;-76
2023/09/24 03:29:13;;;;;;;;;;;;;;;;;;;;;
2023/09/24 03:32:38;;;;;;;7.20;4.10;;;;;;;8.52;84.05;100871.39;133463;1295;22277;-78
2023/09/24 03:36:04;;;;;;;;;;;;;;;;;;;;;
2023/09/24 03:39:47;;;;;;;5.50;4.10;;;;;;;8.55;84.18;100867.62;133616;1301;22362;-77
2023/09/24 03:43:52;;;;;;;7.40;4.40;;;;;;;8.58;84.36;100876.13;133542;1294;22388;-79
2023/09/24 03:47:02;;;;;;;8.20;4.90;;;;;;;8.60;84.49;100889.02;133448;1301;23200;-80
2023/09/24 03:50:36;;;;;;;7.70;5.00;;;;;;;8.65;84.80;100895.14;133552;1303;22403;-78
2023/09/24 03:53:38;;;;;;;7.10;4.00;;;;;;;8.71;84.98;100899.52;133372;1301;22405;-79
2023/09/24 03:56:53;;;;;;;5.40;4.40;;;;;;;8.73;84.90;100904.97;133382;1308;22495;-77
2023/09/24 04:07:51;;;;;;;;;;;;;;;;;;;;;
2023/09/24 04:11:16;;;;;;;8.30;4.30;;;;;;;8.72;84.90;100912.65;133241;1304;23346;-78
2023/09/24 04:14:20;;;;;;;6.80;4.40;;;;;;;8.73;85.02;100910.61;133471;1302;22610;-79
2023/09/24 04:17:20;;;;;;;4.90;3.70;;;;;;;8.73;84.93;100915.54;133533;1302;22448;-77
2023/09/24 04:20:45;;;;;;;;;;;;;;;8.71;84.95;100922.28;133525;1302;22570;-78
2023/09/24 04:23:46;;;;;;;5.70;3.90;;;;;;;8.70;85.09;100920.80;133592;1308;22886;-78
2023/09/24 04:27:00;;;;;;;5.60;3.80;;;;;;;8.69;84.95;100919.33;133490;1304;22394;-81
2023/09/24 04:30:15;;;;;;;5.90;3.90;;;;;;;8.68;85.02;100920.58;133571;1307;22817;-80
2023/09/24 04:33:16;;;;;;;6.70;4.20;;;;;;;8.69;85.13;100921.73;133519;1301;22451;-76
2023/09/24 04:36:18;;;;;;;5.60;4.10;;;;;;;8.70;85.08;100921.14;133357;1304;23118;-79
2023/09/24 04:39:19;;;;;;;5.10;3.50;;;;;;;8.68;85.17;100922.49;133530;1298;22269;-79
2023/09/24 04:42:55;;;;;;;;;;;;;;;;;;;;;
2023/09/24 04:45:56;;;;;;;6.90;3.90;;;;;;;8.63;84.92;100939.58;133564;1301;22416;-76
2023/09/24 04:49:08;;;;;;;6.50;3.60;;;;;;;8.60;84.91;100948.65;133683;1308;22230;-78
2023/09/24 04:52:20;;;;;;;4.60;3.50;;;;;;;8.60;85.01;100950.23;133430;1302;22173;-79
2023/09/24 04:55:35;;;;;;;3.50;3.20;;;;;;;8.60;85.29;100955.16;133604;1302;22937;-76
2023/09/24 04:58:46;;;;;;;;;;;;;;;;;;;;;
2023/09/24 05:02:20;;;;;;;4.30;3.60;;;;;;;8.67;85.35;100968.15;133582;1301;23161;-79
2023/09/24 05:05:49;;;;;;;6.00;3.00;;;;;;;8.70;85.53;100968.56;133614;1301;22363;-76
2023/09/24 05:08:56;;;;;;;7.20;3.90;;;;;;;8.74;85.54;100980.89;133499;1301;22532;-80
2023/09/24 05:11:58;;;;;;;4.30;3.80;;;;;;;8.79;85.87;100987.67;133506;1302;23185;-77
2023/09/24 05:15:04;;;;;;;8.70;3.90;;;;;;;8.87;86.01;100988.98;133267;1302;22443;-77
2023/09/24 05:18:16;;;;;;;;;;;;;;;;;;;;;
2023/09/24 05:21:32;;;;;;;7.10;4.30;;;;;;;9.01;86.42;101006.61;133577;1301;22383;-79
2023/09/24 05:24:34;;;;;;;7.50;4.20;;;;;;;9.09;86.41;101009.38;133573;1301;23126;-78
2023/09/24 05:27:48;;;;;;;;;;;;;;;;;;;;;
2023/09/24 05:30:54;;;;;;;6.80;4.10;;;;;;;9.31;86.69;101009.58;133613;1299;23540;-77
2023/09/24 05:34:04;;;;;;;4.90;4.00;;;;;;;9.49;86.72;101009.23;133596;1301;23030;-77
2023/09/24 05:37:17;;;;;;;6.50;3.90;;;;;;;9.67;86.62;101014.48;133397;1302;22340;-78
2023/09/24 05:40:59;;;;;;;6.90;3.80;;;;;;;9.83;86.46;101019.55;133615;1301;22324;-77
2023/09/24 05:44:09;;;;;;;7.90;3.80;;;;;;;9.98;86.44;101020.66;133612;1308;22371;-80
2023/09/24 05:47:38;;;;;;;7.40;4.40;;;;;;;10.16;86.44;101028.23;133368;1301;22811;-78
2023/09/24 05:50:38;;;;;;;6.70;4.20;;;;;;;10.32;86.39;101040.23;133548;1301;22272;-78
2023/09/24 05:54:12;;;;;;;;;;;;;;;;;;;;;
2023/09/24 05:57:33;;;;;;;6.00;3.90;;;;;;;10.68;86.35;101051.31;133527;1301;23110;-77
2023/09/24 06:01:32;;;;;;;7.20;5.50;;;;;;;10.88;85.94;101057.12;133477;1302;22434;-79
2023/09/24 06:04:08;;;;;;;7.50;4.70;;;;;;;11.00;85.91;101065.63;133468;1302;22307;-77
2023/09/24 06:07:09;;;;;;;6.50;3.90;;;;;;;11.13;85.36;101063.68;133394;1304;22488;-82
2023/09/24 06:10:12;;;;;;;;;;;;;;;11.27;85.36;101063.02;133491;1301;22476;-84
2023/09/24 06:13:23;;;;;;;6.00;3.80;;;;;;;11.46;85.16;101064.73;133562;1302;23664;-82
2023/09/24 06:16:32;;;;;;;6.80;3.90;;;;;;;11.73;85.17;101061.95;133579;1301;22265;-83
2023/09/24 06:19:33;;;;;;;6.30;3.30;;;;;;;12.19;85.05;101063.48;133568;1301;23136;-82
2023/09/24 06:23:17;;;;;;;6.30;3.40;;;;;;;12.66;84.68;101065.27;133524;1301;23153;-84
2023/09/24 06:27:16;;;;;;;;;;;;;;;;;;;;;
2023/09/24 06:30:22;;;;;;;5.70;4.10;;;;;;;13.30;82.88;101081.10;133335;1302;22583;-90
2023/09/24 06:33:27;;;;;;;11.50;7.10;;;;;;;13.44;82.32;101087.92;133187;1301;22439;-86
2023/09/24 06:36:43;;;;;;;10.20;6.90;;;;;;;13.57;81.91;101078.33;133540;1301;22281;-77
2023/09/24 06:40:15;;;;;;;;;;;;;;;;;;;;;
2023/09/24 06:43:40;;;;;;;4.60;3.80;;;;;;;13.83;81.08;101073.24;133535;1301;22417;-83
2023/09/24 06:47:22;;;;;;;;;;;;;;;;;;;;;
2023/09/24 06:50:58;;;;;;;4.60;3.20;;;;;;;14.72;80.50;101077.21;133444;1302;22997;-81
2023/09/24 06:58:12;;;;;;;4.10;3.00;;;;;;;15.28;78.79;101086.31;133533;1301;23096;-75
2023/09/24 07:01:33;;;;;;;5.00;3.00;;;;;;;15.36;78.29;101088.83;133569;1302;23242;-76
2023/09/24 07:05:42;;;;;;;3.40;2.90;;;;;;;15.53;78.04;101089.89;133319;1304;22285;-76
2023/09/24 07:08:31;;;;;;;6.10;3.30;;;;;;;15.63;77.41;101086.06;133490;1301;22433;-73
2023/09/24 07:12:06;;;;;;;;;;;;;;;;;;;;;
2023/09/24 07:16:07;;;;;;;;;;;;;;;;;;;;;
2023/09/24 07:19:57;;;;;;;6.70;3.00;;;;;;;15.88;75.99;101098.30;133660;1301;23154;-75
2023/09/24 07:23:31;;;;;;;5.70;3.20;;;;;;;15.93;75.94;101105.63;133432;1304;22573;-75
2023/09/24 07:27:04;;;;;;;;;;;;;;;;;;;;;
2023/09/24 07:30:49;;;;;;;6.30;3.70;;;;;;;16.69;75.82;101115.09;133372;1301;22444;-76
2023/09/24 07:34:18;;;;;;;4.60;3.40;;;;;;;17.28;74.87;101119.98;133624;1302;22624;-75
2023/09/24 07:37:45;;;;;;;4.70;3.00;;;;;;;17.57;74.15;101122.41;133316;1301;23411;-76
2023/09/24 07:41:37;;;;;;;5.20;2.90;;;;;;;17.80;73.54;101122.33;133631;1303;22912;-79
2023/09/24 07:44:47;;;;;;;4.70;2.90;;;;;;;18.00;72.48;101123.77;133603;1301;22472;-75
2023/09/24 07:47:58;;;;;;;5.50;3.40;;;;;;;18.15;72.13;101124.60;133594;1301;22291;-79
2023/09/24 07:51:15;;;;;;;7.60;3.20;;;;;;;18.31;71.18;101127.48;133614;1298;22247;-79
2023/09/24 07:54:37;;;;;;;5.60;2.90;;;;;;;18.41;70.71;101128.46;133586;1302;22430;-75
2023/09/24 07:57:48;;;;;;;4.30;3.10;;;;;;;18.72;70.50;101126.48;133589;1300;22179;-79
2023/09/24 08:01:47;;;;;;;5.30;3.10;;;;;;;18.97;69.53;101129.16;133599;1302;22521;-78
2023/09/24 08:05:02;;;;;;;6.20;3.50;;;;;;;19.27;68.72;101133.91;133539;1301;22418;-75
2023/09/24 08:08:26;;;;;;;9.90;3.50;;;;;;;19.47;68.02;101136.88;133636;1301;22456;-76
2023/09/24 08:11:27;;;;;;;5.30;2.80;;;;;;;19.84;67.80;101140.52;133638;1301;22519;-76
2023/09/24 08:15:04;;;;;;;9.20;3.70;;;;;;;20.04;66.46;101139.98;133598;1301;23045;-76
2023/09/24 08:18:26;;;;;;;8.60;4.20;;;;;;;20.20;66.19;101143.08;133621;1302;22864;-76
2023/09/24 08:21:30;;;;;;;;;;;;;;;20.54;66.01;101149.13;133459;1301;23158;-76
2023/09/24 08:24:31;;;;;;;4.60;3.20;;;;;;;20.85;65.40;101150.83;133405;1303;22421;-76
2023/09/24 08:27:44;;;;;;;5.80;3.00;;;;;;;21.06;63.94;101152.11;133585;1301;23294;-76
2023/09/24 08:31:02;;;;;;;6.60;3.30;;;;;;;21.27;63.34;101154.48;133649;1304;23283;-76
2023/09/24 08:34:06;;;;;;;3.70;2.40;;;;;;;21.40;62.98;101158.63;133382;1305;23125;-81
2023/09/24 08:37:41;;;;;;;4.00;2.70;;;;;;;21.73;62.60;101156.56;133297;1307;22495;-78
2023/09/24 08:41:01;;;;;;;6.30;3.70;;;;;;;22.03;61.73;101149.38;133341;1303;22735;-75
2023/09/24 08:44:52;;;;;;;;;;;;;;;;;;;;;
2023/09/24 08:48:07;;;;;;;;;;;;;;;;;;;;;
2023/09/24 08:51:14;;;;;;;4.10;3.20;;;;;;;22.54;59.47;101155.20;133648;1307;22505;-74
2023/09/24 08:54:24;;;;;;;8.50;3.30;;;;;;;22.63;58.93;101156.21;133642;1302;22431;-77
2023/09/24 08:57:30;;;;;;;6.20;4.40;;;;;;;22.68;58.26;101157.28;133661;1302;22496;-75
2023/09/24 09:00:45;;;;;;;7.70;3.80;;;;;;;22.63;57.11;101161.65;133678;1305;22434;-74
2023/09/24 09:03:49;;;;;;;5.70;3.60;;;;;;;22.41;55.67;101165.70;133628;1305;22461;-76
2023/09/24 09:06:57;;;;;;;6.50;3.30;;;;;;;21.91;56.07;101166.02;133323;1302;23123;-75
2023/09/24 09:10:10;;;;;;;6.80;3.80;;;;;;;21.93;56.51;101171.68;133630;1304;23033;-73
2023/09/24 09:13:20;;;;;;;5.70;3.80;;;;;;;21.99;55.65;101172.77;133610;1308;22432;-73
2023/09/24 09:16:36;;;;;;;;;;;;;;;;;;;;;
2023/09/24 09:19:53;;;;;;;9.10;4.00;;;;;;;22.01;55.78;101171.02;133641;1302;22441;-75
2023/09/24 09:23:25;;;;;;;6.10;4.00;;;;;;;22.19;55.82;101172.80;133685;1300;23384;-73
2023/09/24 09:26:33;;;;;;;4.80;3.70;;;;;;;21.99;54.96;101177.38;133534;1301;23164;-73
2023/09/24 09:29:40;;;;;;;5.80;4.00;;;;;;;21.70;54.91;101178.14;133355;1305;23295;-74
2023/09/24 09:32:59;;;;;;;4.20;3.40;;;;;;;21.93;55.25;101171.55;133621;1304;22213;-73
2023/09/24 09:36:33;;;;;;;;;;;;;;;;;;;;;
2023/09/24 09:39:34;;;;;;;5.40;3.40;;;;;;;22.09;54.33;101174.27;133293;1300;22705;-74
2023/09/24 09:42:41;;;;;;;4.70;3.60;;;;;;;22.00;53.73;101171.67;133651;1302;22515;-74
2023/09/24 09:45:54;;;;;;;4.10;3.30;;;;;;;21.92;53.99;101168.11;133317;1305;22489;-74
2023/09/24 09:49:07;;;;;;;4.90;2.90;;;;;;;22.16;54.39;101166.20;133491;1306;23042;-72
2023/09/24 09:53:10;;;;;;;;;;;;;;;;;;;;;
2023/09/24 09:56:25;;;;;;;;;;;;;;;;;;;;;
2023/09/24 09:59:44;;;;;;;;;;;;;;;;;;;;;
2023/09/24 10:03:00;;;;;;;;;;;;;;;;;;;;;
2023/09/24 10:06:50;;;;;;;5.80;2.90;;;;;;;22.65;52.71;101166.59;133485;1301;23240;-75
2023/09/24 10:10:12;;;;;;;4.10;2.90;;;;;;;22.44;51.48;101167.05;133329;1302;22498;-75
2023/09/24 10:13:50;;;;;;;6.30;3.00;;;;;;;22.14;51.31;101169.87;133472;1301;22485;-78
2023/09/24 10:17:32;;;;;;;4.10;2.70;;;;;;;22.13;52.17;101174.44;133146;1301;22273;-77
2023/09/24 10:21:08;;;;;;;4.00;2.50;;;;;;;22.29;52.55;101173.60;133364;1304;23389;-77
2023/09/24 10:24:15;;;;;;;5.30;2.50;;;;;;;22.45;51.99;101175.52;133573;1304;22195;-77
2023/09/24 10:28:00;;;;;;;4.00;2.00;;;;;;;22.33;51.41;101178.41;133506;1305;22446;-78
2023/09/24 10:31:12;;;;;;;5.00;2.60;;;;;;;22.19;51.32;101180.77;133423;1302;23639;-77
2023/09/24 10:35:32;;;;;;;4.30;2.30;;;;;;;22.15;51.24;101177.37;133515;1302;22452;-78
2023/09/24 10:39:24;;;;;;;5.60;2.80;;;;;;;22.20;50.81;101180.90;133544;1301;23211;-77
2023/09/24 10:42:43;;;;;;;3.10;2.10;;;;;;;21.76;50.65;101185.61;133502;1301;22282;-77
2023/09/24 10:50:29;;;;;;;4.80;2.50;;;;;;;21.49;51.40;101179.02;133409;1303;23068;-77
2023/09/24 10:53:39;;;;;;;6.10;2.70;;;;;;;21.37;51.85;101180.61;133394;1301;22498;-76
2023/09/24 10:57:15;;;;;;;3.00;2.40;;;;;;;21.41;52.03;101179.50;133540;1301;23183;-77
2023/09/24 11:00:42;;;;;;;3.90;2.20;;;;;;;21.42;51.96;101181.16;133450;1301;22483;-76
2023/09/24 11:07:37;;;;;;;4.20;2.60;;;;;;;20.88;52.10;101179.13;133564;1302;23264;-76
2023/09/24 11:11:01;;;;;;;3.50;2.40;;;;;;;21.00;52.51;101173.45;133525;1304;22447;-76
2023/09/24 11:14:23;;;;;;;4.00;2.40;;;;;;;21.12;52.44;101177.30;133359;1301;22456;-76
2023/09/24 11:17:27;;;;;;;4.40;2.60;;;;;;;20.97;52.26;101176.33;133526;1302;22370;-76
2023/09/24 11:20:43;;;;;;;3.00;2.40;;;;;;;21.13;52.19;101176.38;133542;1300;22544;-76
2023/09/24 11:23:44;;;;;;;4.50;2.00;;;;;;;21.18;51.50;101179.28;133472;1300;22287;-76
2023/09/24 11:26:48;;;;;;;4.80;2.00;;;;;;;20.93;51.33;101175.25;133433;1303;23303;-76
2023/09/24 11:29:57;;;;;;;4.60;2.10;;;;;;;20.88;52.07;101172.45;133501;1303;22508;-77
2023/09/24 11:33:12;;;;;;;2.40;1.90;;;;;;;21.11;52.30;101171.77;133496;1301;22428;-75
2023/09/24 11:36:33;;;;;;;;;;;;;;;;;;;;;
2023/09/24 11:40:24;;;;;;;6.80;2.40;;;;;;;20.84;52.16;101170.14;133419;1301;23549;-76
2023/09/24 11:43:25;;;;;;;3.50;1.70;;;;;;;21.13;52.64;101172.39;133389;1301;22438;-75
2023/09/24 11:46:29;;;;;;;4.60;2.20;;;;;;;21.34;52.14;101173.64;133479;1304;22556;-75
2023/09/24 11:49:43;;;;;;;3.60;1.90;;;;;;;21.39;51.59;101168.48;133452;1301;22479;-74
2023/09/24 11:52:43;;;;;;;3.50;2.10;;;;;;;21.42;51.54;101165.05;133458;1301;22407;-74
2023/09/24 11:55:44;;;;;;;4.10;2.30;;;;;;;21.57;51.50;101159.13;133516;1304;23312;-76
2023/09/24 11:58:46;;;;;;;4.10;2.10;;;;;;;21.79;51.55;101154.79;133506;1303;22636;-75
2023/09/24 12:02:20;;;;;;;6.30;2.10;;;;;;;22.03;51.65;101150.88;133465;1301;22176;-76
2023/09/24 12:05:41;;;;;;;2.20;1.80;;;;;;;22.24;51.01;101153.64;133518;1303;23038;-75
2023/09/24 12:08:45;;;;;;;5.40;2.10;;;;;;;22.04;50.11;101144.55;133508;1301;22218;-78
2023/09/24 12:11:49;;;;;;;4.90;2.10;;;;;;;21.74;50.21;101143.81;133481;1301;23248;-74
2023/09/24 12:14:52;;;;;;;1.80;1.50;;;;;;;21.33;49.80;101154.88;133473;1303;22275;-75
2023/09/24 12:17:57;;;;;;;2.40;1.60;;;;;;;20.96;49.96;101158.52;133474;1305;22152;-74
2023/09/24 12:21:08;;;;;;;2.60;1.90;;;;;;;20.75;50.17;101162.13;133463;1308;22443;-70
2023/09/24 12:24:09;;;;;;;3.80;1.70;;;;;;;20.56;50.34;101160.16;133371;1298;22198;-70
2023/09/24 12:27:10;;;;;;;2.90;2.10;;;;;;;20.46;50.41;101155.55;133386;1301;22897;-73
2023/09/24 12:30:17;;;;;;;7.30;2.00;;;;;;;20.35;50.63;101155.23;133392;1304;22457;-71
2023/09/24 12:33:18;;;;;;;3.70;1.90;;;;;;;20.49;51.40;101154.81;133297;1302;22571;-70
2023/09/24 12:36:21;;;;;;;3.50;1.40;;;;;;;20.71;51.37;101154.58;133412;1307;22509;-73
2023/09/24 12:39:24;;;;;;;3.50;1.80;;;;;;;20.89;50.89;101161.41;133442;1302;22947;-71
2023/09/24 12:42:28;;;;;;;2.30;1.70;;;;;;;20.98;50.40;101164.51;133426;1301;22469;-73
2023/09/24 12:45:31;;;;;;;2.20;1.50;;;;;;;20.91;50.92;101169.33;133414;1301;22408;-70
2023/09/24 12:48:35;;;;;;;2.60;1.50;;;;;;;20.72;50.56;101174.36;133567;1301;22410;-71
2023/09/24 12:51:36;;;;;;;3.30;2.10;;;;;;;20.44;50.73;101178.84;133534;1301;22289;-71
2023/09/24 12:54:41;;;;;;;3.10;1.60;;;;;;;20.16;51.25;101176.98;133495;1294;22410;-70
2023/09/24 12:57:44;;;;;;;2.40;1.70;;;;;;;20.07;51.48;101175.51;133546;1303;22950;-70
2023/09/24 13:00:47;;;;;;;5.10;2.00;;;;;;;20.06;51.48;101171.19;133348;1301;22473;-74
2023/09/24 13:03:51;;;;;;;4.10;2.10;;;;;;;19.96;51.39;101169.92;133521;1301;22476;-71
2023/09/24 13:06:55;;;;;;;2.20;2.00;;;;;;;20.01;52.07;101170.20;133542;1301;22123;-70
2023/09/24 13:09:56;;;;;;;2.70;1.70;;;;;;;20.01;52.06;101168.13;133502;1301;22297;-73
2023/09/24 13:12:58;;;;;;;3.70;2.30;;;;;;;20.08;52.26;101169.10;133562;1303;22432;-71
2023/09/24 13:16:02;;;;;;;6.90;2.70;;;;;;;20.24;52.30;101169.95;133546;1307;22164;-71
2023/09/24 13:19:05;;;;;;;3.30;1.70;;;;;;;20.35;51.87;101164.52;133524;1301;22466;-71
2023/09/24 13:22:08;;;;;;;3.80;2.20;;;;;;;20.41;51.49;101163.29;133522;1300;22512;-72
2023/09/24 13:25:11;;;;;;;3.50;1.70;;;;;;;20.46;51.30;101163.46;133557;1301;22452;-71
2023/09/24 13:28:13;;;;;;;3.90;2.10;;;;;;;20.43;51.17;101167.56;133543;1301;22423;-71
2023/09/24 13:31:14;;;;;;;3.60;2.10;;;;;;;20.29;51.20;101165.98;133496;1301;23453;-70
2023/09/24 13:34:17;;;;;;;4.40;1.60;;;;;;;20.16;50.90;101168.08;133503;1301;22909;-72
2023/09/24 13:37:21;;;;;;;4.30;1.80;;;;;;;19.81;50.94;101167.23;133367;1307;22491;-71
2023/09/24 13:40:26;;;;;;;4.90;2.00;;;;;;;19.50;51.48;101168.20;133522;1301;22592;-71
2023/09/24 13:43:36;;;;;;;2.50;1.60;;;;;;;19.32;52.06;101171.95;133405;1303;22963;-70
2023/09/24 13:46:39;;;;;;;2.30;1.60;;;;;;;19.27;52.51;101168.79;133539;1300;22439;-71
2023/09/24 13:49:43;;;;;;;3.40;2.30;;;;;;;19.39;52.80;101169.17;133549;1294;22449;-72
2023/09/24 13:52:49;;;;;;;4.30;2.20;;;;;;;19.55;52.72;101165.28;133402;1303;23090;-70
2023/09/24 13:56:07;;;;;;;5.00;2.10;;;;;;;19.66;52.50;101158.41;133278;1301;22496;-71
2023/09/24 13:59:11;;;;;;;;;;;;;;;19.84;52.89;101162.44;133562;1301;24670;-72
2023/09/24 14:02:12;;;;;;;3.30;1.80;;;;;;;19.99;52.32;101161.56;133558;1303;22480;-71
2023/09/24 14:05:21;;;;;;;3.40;2.00;;;;;;;19.95;52.46;101164.41;133588;1300;23163;-72
2023/09/24 14:15:08;;;;;;;4.60;1.80;;;;;;;19.41;52.29;101179.86;133552;1307;22511;-72
2023/09/24 14:18:14;;;;;;;4.40;2.30;;;;;;;19.20;52.80;101180.58;133550;1302;23055;-70
2023/09/24 14:21:20;;;;;;;2.70;1.80;;;;;;;19.02;52.90;101183.23;133534;1307;22178;-71
2023/09/24 14:24:44;;;;;;;2.60;2.00;;;;;;;18.86;53.24;101181.79;133553;1300;22871;-71
2023/09/24 14:27:47;;;;;;;8.90;2.60;;;;;;;18.70;53.67;101184.09;133506;1301;22233;-71
2023/09/24 14:30:48;;;;;;;5.00;2.30;;;;;;;18.58;53.96;101185.71;133520;1300;22365;-71
2023/09/24 14:33:50;;;;;;;5.10;2.60;;;;;;;18.47;54.40;101182.52;133554;1300;22443;-70
2023/09/24 14:37:17;;;;;;;8.50;4.00;;;;;;;18.38;54.65;101178.80;133533;1291;23187;-71
2023/09/24 14:40:21;;;;;;;8.10;4.80;;;;;;;18.38;55.02;101178.38;133542;1300;22789;-70
2023/09/24 14:43:28;;;;;;;7.50;4.20;;;;;;;18.42;55.22;101182.46;133521;1300;22468;-70
2023/09/24 14:46:29;;;;;;;3.10;2.20;;;;;;;18.47;55.31;101183.75;133534;1302;22444;-70
2023/09/24 14:49:38;;;;;;;4.20;2.00;;;;;;;18.53;55.12;101182.40;133489;1302;22440;-71
2023/09/24 14:52:42;;;;;;;4.30;1.70;;;;;;;18.59;54.99;101187.41;133493;1301;22438;-71
2023/09/24 14:55:47;;;;;;;4.60;2.20;;;;;;;18.68;54.86;101190.10;133580;1306;22519;-72
2023/09/24 14:58:48;;;;;;;3.00;1.80;;;;;;;18.71;54.85;101193.93;133510;1301;23661;-71
2023/09/24 15:01:52;;;;;;;7.70;2.00;;;;;;;18.79;54.95;101198.23;133502;1300;22431;-70
2023/09/24 15:04:59;;;;;;;2.90;1.70;;;;;;;18.75;54.20;101200.89;133537;1307;22433;-70
2023/09/24 15:08:04;;;;;;;4.00;2.10;;;;;;;18.50;54.08;101203.08;133547;1300;22423;-70
2023/09/24 15:11:07;;;;;;;3.30;1.80;;;;;;;18.28;54.43;101206.21;133504;1303;22242;-71
2023/09/24 15:14:08;;;;;;;2.50;2.00;;;;;;;18.17;54.86;101202.21;133519;1307;23628;-72
2023/09/24 15:17:12;;;;;;;5.20;2.40;;;;;;;18.09;54.94;101206.10;133525;1301;23260;-70
2023/09/24 15:20:38;;;;;;;2.30;2.00;;;;;;;17.92;55.23;101205.83;133511;1302;22491;-71
2023/09/24 15:23:42;;;;;;;3.60;2.10;;;;;;;17.80;55.49;101211.34;133513;1300;22455;-70
2023/09/24 15:26:55;;;;;;;3.40;1.80;;;;;;;17.72;55.61;101214.30;133535;1300;22441;-71
2023/09/24 15:30:09;;;;;;;4.30;2.00;;;;;;;17.62;55.67;101208.69;133352;1306;22277;-71
2023/09/24 15:33:17;;;;;;;4.00;1.80;;;;;;;17.50;55.87;101210.21;133516;1300;23212;-71
2023/09/24 15:36:24;;;;;;;2.90;1.80;;;;;;;17.44;56.15;101207.11;133552;1297;22960;-70
2023/09/24 15:39:36;;;;;;;3.70;1.80;;;;;;;17.42;56.48;101210.40;133425;1303;22419;-70
2023/09/24 15:42:55;;;;;;;4.20;1.70;;;;;;;17.44;56.74;101213.15;133547;1300;22928;-71
2023/09/24 15:46:04;;;;;;;4.30;1.70;;;;;;;17.48;56.85;101218.69;133373;1302;22303;-71
2023/09/24 15:49:07;;;;;;;3.20;1.50;;;;;;;17.50;57.13;101214.02;133420;1302;22478;-72
2023/09/24 15:52:10;;;;;;;2.50;1.60;;;;;;;17.49;57.15;101215.45;133501;1300;22298;-70
2023/09/24 15:55:12;;;;;;;1.90;1.70;;;;;;;17.43;57.13;101219.27;133417;1300;22513;-71
2023/09/24 15:58:15;;;;;;;5.30;2.50;;;;;;;17.41;57.35;101218.35;133461;1300;23989;-70
2023/09/24 16:01:22;;;;;;;2.90;2.00;;;;;;;17.37;57.65;101217.39;133312;1301;23201;-70
2023/09/24 16:04:25;;;;;;;2.40;1.80;;;;;;;17.32;58.09;101220.04;133422;1303;22337;-71
2023/09/24 16:07:29;;;;;;;4.30;2.50;;;;;;;17.22;58.27;101222.02;133434;1304;23010;-71
2023/09/24 16:10:30;;;;;;;4.80;2.90;;;;;;;17.16;58.67;101230.48;133387;1300;22913;-70
2023/09/24 16:14:07;;;;;;;6.20;3.00;;;;;;;17.12;58.79;101234.55;133379;1301;23237;-73
2023/09/24 16:17:10;;;;;;;4.70;3.00;;;;;;;17.03;59.34;101233.83;133402;1302;22250;-70